Time,TemperatureF,DewpointF,PressureIn,WindDirection,WindDirectionDegrees,WindSpeedMPH,WindSpeedGustMPH,Humidity,HourlyPrecipIn,Conditions,Clouds,dailyrainin,SolarRadiationWatts/m^2,SoftwareType,DateUTC
2013-06-30 00:02:00,70.0,61.0,-100.00,South,187,1.0,3.0,73,-99.99,,,0.00,0.000000,,2013-06-30 06:02:00,
2013-06-30 00:12:00,70.0,61.0,-100.00,South,187,1.0,3.0,73,-99.99,,,0.00,0.000000,,2013-06-30 06:12:00,
2013-06-30 00:43:00,67.0,60.0,-100.00,SSE,150,1.0,3.0,79,-99.99,,,0.00,0.000000,,2013-06-30 06:43:00,
2013-06-30 00:53:00,67.0,60.0,-100.00,SSE,150,1.0,3.0,79,-99.99,,,0.00,0.000000,,2013-06-30 06:53:00,
2013-06-30 01:02:00,67.0,60.0,-100.00,SSE,150,1.0,3.0,79,-99.99,,,0.00,0.000000,,2013-06-30 07:02:00,
2013-06-30 01:12:00,67.0,60.0,-100.00,SSE,150,1.0,3.0,79,-99.99,,,0.00,0.000000,,2013-06-30 07:12:00,
2013-06-30 01:44:00,65.0,59.0,-100.00,SE,131,1.0,2.0,80,-99.99,,,0.00,0.000000,,2013-06-30 07:44:00,
2013-06-30 01:53:00,65.0,59.0,-100.00,SE,131,1.0,2.0,80,-99.99,,,0.00,0.000000,,2013-06-30 07:53:00,
2013-06-30 02:02:00,65.0,59.0,-100.00,SE,131,1.0,2.0,80,-99.99,,,0.00,0.000000,,2013-06-30 08:02:00,
2013-06-30 02:11:00,65.0,59.0,-100.00,SE,131,1.0,2.0,80,-99.99,,,0.00,0.000000,,2013-06-30 08:11:00,
2013-06-30 02:42:00,63.0,59.0,-100.00,SE,131,2.0,3.0,88,-99.99,,,0.00,0.000000,,2013-06-30 08:42:00,
2013-06-30 02:53:00,63.0,59.0,-100.00,SE,131,2.0,3.0,88,-99.99,,,0.00,0.000000,,2013-06-30 08:53:00,
2013-06-30 03:01:00,63.0,59.0,-100.00,SE,131,2.0,3.0,88,-99.99,,,0.00,0.000000,,2013-06-30 09:01:00,
2013-06-30 03:11:00,63.0,59.0,-100.00,SE,131,2.0,3.0,88,-99.99,,,0.00,0.000000,,2013-06-30 09:11:00,
2013-06-30 03:43:00,61.0,59.0,-100.00,SE,130,2.0,3.0,91,-99.99,,,0.00,0.000000,,2013-06-30 09:43:00,
2013-06-30 03:53:00,61.0,59.0,-100.00,SE,130,2.0,3.0,91,-99.99,,,0.00,0.000000,,2013-06-30 09:53:00,
2013-06-30 04:02:00,61.0,59.0,-100.00,SE,130,2.0,3.0,91,-99.99,,,0.00,0.000000,,2013-06-30 10:02:00,
2013-06-30 04:11:00,61.0,59.0,-100.00,SE,130,2.0,3.0,91,-99.99,,,0.00,0.000000,,2013-06-30 10:11:00,
2013-06-30 04:42:00,61.0,58.0,-100.00,NW,308,1.0,2.0,89,-99.99,,,0.00,0.000000,,2013-06-30 10:42:00,
2013-06-30 04:53:00,61.0,58.0,-100.00,NW,308,1.0,2.0,89,-99.99,,,0.00,0.000000,,2013-06-30 10:53:00,
2013-06-30 05:02:00,61.0,58.0,-100.00,NW,308,1.0,2.0,89,-99.99,,,0.00,0.000000,,2013-06-30 11:02:00,
2013-06-30 05:11:00,61.0,58.0,-100.00,NW,308,1.0,2.0,89,-99.99,,,0.00,0.000000,,2013-06-30 11:11:00,
2013-06-30 05:43:00,60.0,58.0,-100.00,NNW,330,0.0,2.0,93,-99.99,,,0.00,0.000000,,2013-06-30 11:43:00,
2013-06-30 05:53:00,60.0,58.0,-100.00,NNW,330,0.0,2.0,93,-99.99,,,0.00,0.000000,,2013-06-30 11:53:00,
2013-06-30 06:01:00,60.0,58.0,-100.00,NNW,330,0.0,2.0,93,-99.99,,,0.00,0.000000,,2013-06-30 12:01:00,
2013-06-30 06:11:00,60.0,58.0,-100.00,NNW,330,0.0,2.0,93,-99.99,,,0.00,0.000000,,2013-06-30 12:11:00,
2013-06-30 06:43:00,59.0,58.0,-100.00,SE,146,1.0,3.0,96,-99.99,,,0.00,8.600000,,2013-06-30 12:43:00,
2013-06-30 06:52:00,59.0,58.0,-100.00,SE,146,1.0,3.0,96,-99.99,,,0.00,8.600000,,2013-06-30 12:52:00,
2013-06-30 07:02:00,59.0,58.0,-100.00,SE,146,1.0,3.0,96,-99.99,,,0.00,8.600000,,2013-06-30 13:02:00,
2013-06-30 07:12:00,59.0,58.0,-100.00,SE,146,1.0,3.0,96,-99.99,,,0.00,8.600000,,2013-06-30 13:12:00,
2013-06-30 07:43:00,62.0,59.0,-100.00,West,267,0.0,2.0,89,-99.99,,,0.00,145.509995,,2013-06-30 13:43:00,
2013-06-30 07:53:00,62.0,59.0,-100.00,West,267,0.0,2.0,89,-99.99,,,0.00,145.509995,,2013-06-30 13:53:00,
2013-06-30 08:02:00,62.0,59.0,-100.00,West,267,0.0,2.0,89,-99.99,,,0.00,145.509995,,2013-06-30 14:02:00,
2013-06-30 08:11:00,62.0,59.0,-100.00,West,267,0.0,2.0,89,-99.99,,,0.00,145.509995,,2013-06-30 14:11:00,
2013-06-30 08:44:00,68.0,59.0,-100.00,South,172,1.0,3.0,74,-99.99,,,-99.99,298.920013,,2013-06-30 14:44:00,
2013-06-30 08:52:00,68.0,59.0,-100.00,South,172,1.0,3.0,74,-99.99,,,-99.99,298.920013,,2013-06-30 14:52:00,
2013-06-30 09:02:00,68.0,59.0,-100.00,South,172,1.0,3.0,74,-99.99,,,-99.99,298.920013,,2013-06-30 15:02:00,
2013-06-30 09:12:00,68.0,59.0,-100.00,South,172,1.0,3.0,74,-99.99,,,-99.99,298.920013,,2013-06-30 15:12:00,
2013-06-30 09:44:00,70.0,61.0,-100.00,NW,325,1.0,4.0,71,-99.99,,,-99.99,451.750000,,2013-06-30 15:44:00,
2013-06-30 09:53:00,70.0,61.0,-100.00,NW,325,1.0,4.0,71,-99.99,,,-99.99,451.750000,,2013-06-30 15:53:00,
2013-06-30 10:01:00,70.0,61.0,-100.00,NW,325,1.0,4.0,71,-99.99,,,-99.99,451.750000,,2013-06-30 16:01:00,
2013-06-30 10:11:00,70.0,61.0,-100.00,NW,325,1.0,4.0,71,-99.99,,,-99.99,451.750000,,2013-06-30 16:11:00,
2013-06-30 10:44:00,74.0,60.0,-100.00,NW,311,2.0,4.0,60,-99.99,,,0.00,637.580017,,2013-06-30 16:44:00,
2013-06-30 10:53:00,74.0,60.0,-100.00,NW,311,2.0,4.0,60,-99.99,,,0.00,637.580017,,2013-06-30 16:53:00,
2013-06-30 11:01:00,74.0,60.0,-100.00,NW,311,2.0,4.0,60,-99.99,,,0.00,637.580017,,2013-06-30 17:01:00,
2013-06-30 11:11:00,74.0,60.0,-100.00,NW,311,2.0,4.0,60,-99.99,,,0.00,637.580017,,2013-06-30 17:11:00,
2013-06-30 11:43:00,78.0,59.0,-100.00,NW,322,2.0,5.0,52,-99.99,,,-99.99,781.929993,,2013-06-30 17:43:00,
2013-06-30 11:52:00,78.0,59.0,-100.00,NW,322,2.0,5.0,52,-99.99,,,-99.99,781.929993,,2013-06-30 17:52:00,
2013-06-30 12:01:00,78.0,59.0,-100.00,NW,322,2.0,5.0,52,-99.99,,,-99.99,781.929993,,2013-06-30 18:01:00,
2013-06-30 12:12:00,78.0,59.0,-100.00,NW,322,2.0,5.0,52,-99.99,,,-99.99,781.929993,,2013-06-30 18:12:00,
2013-06-30 12:43:00,81.0,60.0,-100.00,NW,312,3.0,7.0,48,-99.99,,,0.00,879.789978,,2013-06-30 18:43:00,
2013-06-30 12:53:00,81.0,60.0,-100.00,NW,312,3.0,7.0,48,-99.99,,,0.00,879.789978,,2013-06-30 18:53:00,
2013-06-30 13:01:00,81.0,60.0,-100.00,NW,312,3.0,7.0,48,-99.99,,,0.00,879.789978,,2013-06-30 19:01:00,
2013-06-30 13:11:00,81.0,60.0,-100.00,NW,312,3.0,7.0,48,-99.99,,,0.00,879.789978,,2013-06-30 19:11:00,
2013-06-30 13:43:00,85.0,62.0,-100.00,NW,326,2.0,6.0,46,-99.99,,,0.00,933.250000,,2013-06-30 19:43:00,
2013-06-30 13:53:00,85.0,62.0,-100.00,NW,326,2.0,6.0,46,-99.99,,,0.00,933.250000,,2013-06-30 19:53:00,
2013-06-30 14:01:00,85.0,62.0,-100.00,NW,326,2.0,6.0,46,-99.99,,,0.00,933.250000,,2013-06-30 20:01:00,
2013-06-30 14:11:00,85.0,62.0,-100.00,NW,326,2.0,6.0,46,-99.99,,,0.00,933.250000,,2013-06-30 20:11:00,
2013-06-30 14:42:00,87.0,60.0,-100.00,WNW,298,3.0,7.0,40,-99.99,,,0.00,940.219971,,2013-06-30 20:42:00,
2013-06-30 14:52:00,87.0,60.0,-100.00,WNW,298,3.0,7.0,40,-99.99,,,0.00,940.219971,,2013-06-30 20:52:00,
2013-06-30 15:01:00,87.0,60.0,-100.00,WNW,298,3.0,7.0,40,-99.99,,,0.00,940.219971,,2013-06-30 21:01:00,
2013-06-30 15:11:00,87.0,60.0,-100.00,WNW,298,3.0,7.0,40,-99.99,,,0.00,940.219971,,2013-06-30 21:11:00,
2013-06-30 15:42:00,90.0,61.0,-100.00,NW,313,2.0,6.0,37,-99.99,,,0.00,891.409973,,2013-06-30 21:42:00,
2013-06-30 15:53:00,90.0,61.0,-100.00,NW,313,2.0,6.0,37,-99.99,,,0.00,891.409973,,2013-06-30 21:53:00,
2013-06-30 16:01:00,90.0,61.0,-100.00,NW,313,2.0,6.0,37,-99.99,,,0.00,891.409973,,2013-06-30 22:01:00,
2013-06-30 16:11:00,90.0,61.0,-100.00,NW,313,2.0,6.0,37,-99.99,,,0.00,891.409973,,2013-06-30 22:11:00,
2013-06-30 16:43:00,91.0,59.0,-100.00,NNW,327,2.0,7.0,34,-99.99,,,0.00,795.530029,,2013-06-30 22:43:00,
2013-06-30 16:53:00,91.0,59.0,-100.00,NNW,327,2.0,7.0,34,-99.99,,,0.00,795.530029,,2013-06-30 22:53:00,
2013-06-30 17:01:00,91.0,59.0,-100.00,NNW,327,2.0,7.0,34,-99.99,,,0.00,795.530029,,2013-06-30 23:01:00,
2013-06-30 17:11:00,91.0,59.0,-100.00,NNW,327,2.0,7.0,34,-99.99,,,0.00,795.530029,,2013-06-30 23:11:00,